الصفحة الرئيسية
METAR-TAF:

METAR-TAF

مطار :

إسلام آباد, باكستان

مطار بينظير بوتو الدولي

دائرة عرض: 33-37N, خط طول: 073-06E, ارتفاع: 507 متر

مراقبة الطقس الحالي

تاريخ ووقت الإصدار 1ساعة و 20 دقيقة قبل الساعة 22:30UTC
رياح هادئة
درجة الحرارة 6°درجة مئوية
الرطوبة 87%
ضغط 1014 hPa
الرؤية: 4000 متر
غشاء

METAR: OPRN 232230Z 00000KT 4000 BR NSC 06/04 Q1014 A29.96 NOSIG

زمن: 04:50 (23:50 UTC)

توقعات

تاريخ ووقت الإصدار 2ساعات و 20 دقيقة قبل الساعة 21:30UTC
التوقعات صالحة من24 الساعة 00 UTC إلى 25 الساعة 06 UTC
ريح 10 عقدة من الغرب/الجنوب الغربي
الرؤية: 3000 متر
غشاء
مؤقت
من 24 الساعة 03 UTC إلى 24 الساعة 06 UTC
الرؤية: 1500 متر
غشاء
أصبح
من 24 الساعة 06 UTC إلى 24 الساعة 08 UTC
الرؤية: 4000 متر
العجاج
مؤقت
من 25 الساعة 03 UTC إلى 25 الساعة 06 UTC
غشاء

TAF: OPRN 232130Z 2400/2506 25010KT 3000 BR NSC TEMPO 2403/2406 1500 BR BECMG 2406/2408 4000 HZ TEMPO 2503/2506 150 BR

أرصاد الطقس والتوقعات من أكثر من 4000 مطار (تقارير الطقس للمطار METAR والتنبؤ بالطقس بالمطارTAF).

المحطات المتاحة هي النقط الصفراء والحمراء على الخريطة.

حرك المؤشر فوق النقطة لمعرفة اسم المحطة.

ثم انقر لمعرفة أرصاد وتوقعات الطقس.

لتغيير الخارطة: اضغط على الأزرار الخضراء مع رمز الصليب الأسود للتكبير. على الزر الأخضر مع شرطة للتصغير، أو على الأسهم الخضراء للخرائط المجاورة.


METAR-TAF: